createdAt,value
2019-03-03T00:02:26.771Z,10.20
2019-03-03T00:04:55.783Z,10.20
2019-03-03T00:07:27.898Z,10.30
2019-03-03T00:09:56.865Z,10.30
2019-03-03T00:12:27.616Z,10.20
2019-03-03T00:14:59.580Z,10.20
2019-03-03T00:17:28.746Z,10.10
2019-03-03T00:19:57.660Z,10.10
2019-03-03T00:22:28.675Z,10.00
2019-03-03T00:24:59.663Z,10.00
2019-03-03T00:27:32.043Z,10.00
2019-03-03T00:30:00.944Z,10.00
2019-03-03T00:32:34.753Z,10.00
2019-03-03T00:35:03.754Z,10.00
2019-03-03T00:37:51.701Z,10.00
2019-03-03T00:40:33.205Z,9.90
2019-03-03T00:43:20.087Z,9.90
2019-03-03T00:46:12.978Z,9.90
2019-03-03T00:48:57.331Z,9.90
2019-03-03T00:52:05.481Z,9.90
2019-03-03T00:54:42.921Z,9.90
2019-03-03T00:57:18.829Z,10.00
2019-03-03T01:00:13.484Z,10.00
2019-03-03T01:02:52.137Z,10.10
2019-03-03T01:05:31.191Z,10.10
2019-03-03T01:08:11.235Z,10.10
2019-03-03T01:10:58.162Z,10.10
2019-03-03T01:13:36.266Z,10.20
2019-03-03T01:16:17.820Z,10.20
2019-03-03T01:19:01.686Z,10.10
2019-03-03T01:21:46.317Z,10.20
2019-03-03T01:24:26.397Z,10.20
2019-03-03T01:26:55.341Z,10.10
2019-03-03T01:29:25.613Z,10.10
2019-03-03T01:31:56.579Z,10.10
2019-03-03T01:34:25.609Z,10.20
2019-03-03T01:36:54.795Z,10.20
2019-03-03T01:39:25.311Z,10.30
2019-03-03T01:41:54.128Z,10.30
2019-03-03T01:44:23.038Z,10.30
2019-03-03T01:46:52.190Z,10.30
2019-03-03T01:49:22.978Z,10.20
2019-03-03T01:51:51.916Z,10.20
2019-03-03T01:54:20.852Z,10.20
2019-03-03T01:56:50.082Z,10.20
2019-03-03T01:59:19.344Z,10.20
2019-03-03T02:01:48.237Z,10.20
2019-03-03T02:04:17.509Z,10.20
2019-03-03T02:06:50.006Z,10.20
2019-03-03T02:09:19.541Z,10.20
2019-03-03T02:11:49.180Z,10.20
2019-03-03T02:14:21.065Z,10.10
2019-03-03T02:16:49.916Z,10.00
2019-03-03T02:19:19.185Z,9.90
2019-03-03T02:21:48.727Z,9.80
2019-03-03T02:24:18.119Z,9.80
2019-03-03T02:26:47.513Z,9.70
2019-03-03T02:29:17.671Z,9.70
2019-03-03T02:31:47.857Z,9.70
2019-03-03T02:34:17.041Z,9.60
2019-03-03T02:36:46.708Z,9.60
2019-03-03T02:39:17.708Z,9.60
2019-03-03T02:41:46.706Z,9.50
2019-03-03T02:44:16.467Z,9.60
2019-03-03T02:46:45.422Z,9.50
2019-03-03T02:49:14.345Z,9.50
2019-03-03T02:51:43.571Z,9.50
2019-03-03T02:54:13.029Z,9.50
2019-03-03T02:56:42.389Z,9.50
2019-03-03T02:59:11.763Z,9.50
2019-03-03T03:02:03.214Z,9.50
2019-03-03T03:04:32.844Z,9.50
2019-03-03T03:07:35.920Z,9.40
2019-03-03T03:10:11.733Z,9.40
2019-03-03T03:12:52.141Z,9.40
2019-03-03T03:15:43.199Z,9.40
2019-03-03T03:18:24.640Z,9.30
2019-03-03T03:21:10.456Z,9.20
2019-03-03T03:23:57.563Z,9.30
2019-03-03T03:26:54.618Z,9.30
2019-03-03T03:29:42.674Z,9.30
2019-03-03T03:32:28.889Z,9.30
2019-03-03T03:35:23.329Z,9.30
2019-03-03T03:38:14.312Z,9.40
2019-03-03T03:41:11.614Z,9.40
2019-03-03T03:44:00.908Z,9.40
2019-03-03T03:46:39.262Z,9.40
2019-03-03T03:49:28.506Z,9.30
2019-03-03T03:52:31.356Z,9.30
2019-03-03T03:55:12.876Z,9.30
2019-03-03T03:58:09.166Z,9.30
2019-03-03T04:00:59.911Z,9.20
2019-03-03T04:03:38.424Z,9.20
2019-03-03T04:06:36.025Z,9.20
2019-03-03T04:09:10.029Z,9.20
2019-03-03T04:12:04.274Z,9.10
2019-03-03T04:14:43.578Z,9.10
2019-03-03T04:17:31.453Z,9.10
2019-03-03T04:20:15.226Z,9.10
2019-03-03T04:22:53.664Z,9.10
2019-03-03T04:25:49.157Z,9.10
2019-03-03T04:28:27.044Z,9.10
2019-03-03T04:31:11.418Z,9.10
2019-03-03T04:34:14.412Z,9.10
2019-03-03T04:39:57.580Z,9.20
2019-03-03T04:42:48.611Z,9.10
2019-03-03T04:45:25.870Z,9.20
2019-03-03T04:48:08.443Z,9.20
2019-03-03T04:50:55.276Z,9.20
2019-03-03T04:53:47.002Z,9.20
2019-03-03T04:56:30.932Z,9.20
2019-03-03T04:59:07.028Z,9.30
2019-03-03T05:02:01.298Z,9.30
2019-03-03T05:04:36.398Z,9.40
2019-03-03T05:07:42.479Z,9.40
2019-03-03T05:10:30.658Z,9.50
2019-03-03T05:13:16.150Z,9.50
2019-03-03T05:16:19.375Z,9.60
2019-03-03T05:19:08.160Z,9.60
2019-03-03T05:21:37.518Z,9.70
2019-03-03T05:24:06.417Z,9.70
2019-03-03T05:26:35.581Z,9.70
2019-03-03T05:29:04.812Z,9.80
2019-03-03T05:31:34.006Z,9.80
2019-03-03T05:34:02.981Z,9.80
2019-03-03T05:36:32.133Z,9.90
2019-03-03T05:39:02.918Z,9.90
2019-03-03T05:41:32.349Z,10.00
2019-03-03T05:44:01.241Z,10.00
2019-03-03T05:46:30.131Z,10.00
2019-03-03T05:48:59.045Z,10.10
2019-03-03T05:51:28.530Z,10.20
2019-03-03T05:53:58.298Z,10.20
2019-03-03T05:56:27.300Z,10.30
2019-03-03T05:58:56.100Z,10.40
2019-03-03T06:01:24.993Z,10.40
2019-03-03T06:03:53.895Z,10.40
2019-03-03T06:06:23.067Z,10.40
2019-03-03T06:08:52.053Z,10.50
2019-03-03T06:11:21.079Z,10.50
2019-03-03T06:13:50.048Z,10.50
2019-03-03T06:16:23.357Z,10.50
2019-03-03T06:18:52.755Z,10.50
2019-03-03T06:21:23.979Z,10.50
2019-03-03T06:23:53.454Z,10.50
2019-03-03T06:26:22.453Z,10.60
2019-03-03T06:28:51.349Z,10.60
2019-03-03T06:31:20.535Z,10.60
2019-03-03T06:33:49.622Z,10.60
2019-03-03T06:36:19.162Z,10.60
2019-03-03T06:38:48.040Z,10.60
2019-03-03T06:41:20.959Z,10.60
2019-03-03T06:43:50.166Z,10.50
2019-03-03T06:46:19.059Z,10.50
2019-03-03T06:48:49.050Z,10.50
2019-03-03T06:51:20.317Z,10.50
2019-03-03T06:53:52.739Z,10.40
2019-03-03T06:56:25.635Z,10.40
2019-03-03T06:58:54.946Z,10.30
2019-03-03T07:01:23.883Z,10.30
2019-03-03T07:06:30.527Z,10.20
2019-03-03T07:09:00.071Z,10.20
2019-03-03T07:11:33.004Z,10.10
2019-03-03T07:14:04.313Z,10.10
2019-03-03T07:16:34.927Z,10.10
2019-03-03T07:19:04.420Z,10.00
2019-03-03T07:21:34.614Z,10.00
2019-03-03T07:24:03.740Z,9.90
2019-03-03T07:29:43.530Z,9.90
2019-03-03T07:32:12.793Z,9.80
2019-03-03T07:34:47.095Z,9.80
2019-03-03T07:37:16.806Z,9.80
2019-03-03T07:39:48.988Z,9.80
2019-03-03T07:42:21.021Z,9.80
2019-03-03T07:44:52.937Z,9.80
2019-03-03T07:47:21.920Z,9.90
2019-03-03T07:49:55.149Z,9.90
2019-03-03T07:52:26.985Z,9.90
2019-03-03T07:54:56.189Z,9.90
2019-03-03T07:57:25.564Z,9.90
2019-03-03T07:59:54.869Z,10.00
2019-03-03T08:02:24.092Z,9.90
2019-03-03T08:04:54.573Z,10.00
2019-03-03T08:07:23.599Z,10.10
2019-03-03T08:09:52.636Z,10.10
2019-03-03T08:12:21.570Z,10.10
2019-03-03T08:14:50.781Z,10.10
2019-03-03T08:17:21.767Z,10.20
2019-03-03T08:19:57.069Z,10.20
2019-03-03T08:22:26.002Z,10.30
2019-03-03T08:24:56.306Z,10.30
2019-03-03T08:27:26.294Z,10.30
2019-03-03T08:29:55.261Z,10.30
2019-03-03T08:32:24.578Z,10.30
2019-03-03T08:34:53.772Z,10.40
2019-03-03T08:37:23.214Z,10.40
2019-03-03T08:39:52.232Z,10.40
2019-03-03T08:42:46.788Z,10.50
2019-03-03T08:45:29.261Z,10.40
2019-03-03T08:48:05.932Z,10.50
2019-03-03T08:50:41.003Z,10.50
2019-03-03T08:53:22.801Z,10.60
2019-03-03T08:56:26.610Z,10.50
2019-03-03T08:59:14.688Z,10.60
2019-03-03T09:02:06.761Z,10.60
2019-03-03T09:04:43.644Z,10.60
2019-03-03T09:07:21.253Z,10.60
2019-03-03T09:10:12.651Z,10.60
2019-03-03T09:12:56.029Z,10.60
2019-03-03T09:15:46.010Z,10.60
2019-03-03T09:18:43.313Z,10.70
2019-03-03T09:21:34.560Z,10.70
2019-03-03T09:24:40.687Z,10.80
2019-03-03T09:27:28.765Z,10.80
2019-03-03T09:30:15.647Z,10.80
2019-03-03T09:33:02.895Z,10.80
2019-03-03T09:35:39.779Z,10.90
2019-03-03T09:38:18.344Z,10.80
2019-03-03T09:41:02.038Z,10.80
2019-03-03T09:43:38.384Z,10.80
2019-03-03T09:46:20.812Z,10.80
2019-03-03T09:49:14.878Z,10.90
2019-03-03T09:52:04.762Z,10.80
2019-03-03T09:54:38.736Z,10.90
2019-03-03T09:57:48.824Z,10.90
2019-03-03T10:00:27.755Z,10.90
2019-03-03T10:03:16.253Z,10.90
2019-03-03T10:06:13.653Z,10.90
2019-03-03T10:09:02.020Z,10.90
2019-03-03T10:11:37.750Z,10.90
2019-03-03T10:14:39.325Z,11.00
2019-03-03T10:17:33.320Z,11.00
2019-03-03T10:20:21.425Z,11.00
2019-03-03T10:23:10.892Z,11.10
2019-03-03T10:25:53.565Z,11.10
2019-03-03T10:28:43.437Z,11.20
2019-03-03T10:31:33.281Z,11.20
2019-03-03T10:34:23.261Z,11.20
2019-03-03T10:37:26.922Z,11.20
2019-03-03T10:40:14.710Z,11.10
2019-03-03T10:43:01.724Z,11.20
2019-03-03T10:45:51.724Z,11.10
2019-03-03T10:48:42.551Z,11.10
2019-03-03T10:51:39.617Z,11.10
2019-03-03T10:54:25.494Z,11.10
2019-03-03T10:57:06.014Z,11.10
2019-03-03T10:59:54.823Z,11.10
2019-03-03T11:02:26.958Z,11.10
2019-03-03T11:05:05.445Z,11.20
2019-03-03T11:07:58.507Z,11.20
2019-03-03T11:10:41.828Z,11.20
2019-03-03T11:13:24.436Z,11.20
2019-03-03T11:16:17.838Z,11.10
2019-03-03T11:19:15.207Z,11.10
2019-03-03T11:22:14.516Z,11.10
2019-03-03T11:25:02.443Z,11.10
2019-03-03T11:27:53.881Z,11.10
2019-03-03T11:30:57.212Z,11.10
2019-03-03T11:33:45.319Z,11.10
2019-03-03T11:36:32.594Z,11.20
2019-03-03T11:39:13.039Z,11.20
2019-03-03T11:41:59.704Z,11.20
2019-03-03T11:44:46.790Z,11.20
2019-03-03T11:47:23.715Z,11.20
2019-03-03T11:50:04.638Z,11.20
2019-03-03T11:52:46.645Z,11.30
2019-03-03T11:55:25.013Z,11.30
2019-03-03T11:58:01.640Z,11.30
2019-03-03T12:00:54.125Z,11.30
2019-03-03T12:03:36.259Z,11.30
2019-03-03T12:06:13.408Z,11.40
2019-03-03T12:09:01.381Z,11.30
2019-03-03T12:11:52.238Z,11.40
2019-03-03T12:17:56.459Z,11.50
2019-03-03T12:20:37.585Z,11.40
2019-03-03T12:23:24.359Z,11.50
2019-03-03T12:26:14.393Z,11.40
2019-03-03T12:29:17.943Z,11.40
2019-03-03T12:32:15.035Z,11.40
2019-03-03T12:35:03.095Z,11.40
2019-03-03T12:37:55.179Z,11.30
2019-03-03T12:40:44.947Z,11.30
2019-03-03T12:43:26.017Z,11.30
2019-03-03T12:46:14.285Z,11.20
2019-03-03T12:49:19.932Z,11.20
2019-03-03T12:54:58.159Z,11.10
2019-03-03T12:57:49.503Z,11.10
2019-03-03T13:00:24.304Z,11.00
2019-03-03T13:03:11.765Z,11.00
2019-03-03T13:06:02.340Z,11.00
2019-03-03T13:09:00.044Z,11.00
2019-03-03T13:11:50.770Z,10.90
2019-03-03T13:14:41.572Z,10.90
2019-03-03T13:17:35.981Z,10.90
2019-03-03T13:20:15.842Z,10.90
2019-03-03T13:23:22.088Z,10.90
2019-03-03T13:26:35.026Z,10.90
2019-03-03T13:29:09.247Z,10.90
2019-03-03T13:32:04.949Z,10.90
2019-03-03T13:35:06.202Z,10.90
2019-03-03T13:37:54.318Z,11.00
2019-03-03T13:40:31.711Z,11.00
2019-03-03T13:43:00.716Z,11.00
2019-03-03T13:45:33.645Z,11.10
2019-03-03T13:48:02.957Z,11.10
2019-03-03T13:53:07.656Z,11.10
2019-03-03T13:55:36.697Z,11.20
2019-03-03T13:58:08.215Z,11.30
2019-03-03T14:00:39.717Z,11.30
2019-03-03T14:03:08.810Z,11.40
2019-03-03T14:05:37.975Z,11.50
2019-03-03T14:08:10.487Z,11.50
2019-03-03T14:10:39.593Z,11.40
2019-03-03T14:13:08.625Z,11.50
2019-03-03T14:15:37.983Z,11.60
2019-03-03T14:18:07.088Z,11.50
2019-03-03T14:20:36.593Z,11.60
2019-03-03T14:23:05.556Z,11.60
2019-03-03T14:25:34.785Z,11.60
2019-03-03T14:28:03.791Z,11.50
2019-03-03T14:30:33.179Z,11.50
2019-03-03T14:33:02.182Z,11.40
2019-03-03T14:35:31.184Z,11.30
2019-03-03T14:38:02.160Z,11.30
2019-03-03T14:40:31.731Z,11.20
2019-03-03T14:43:00.709Z,11.20
2019-03-03T14:45:30.467Z,11.10
2019-03-03T14:47:59.462Z,11.10
2019-03-03T14:50:28.603Z,11.10
2019-03-03T14:52:57.903Z,11.10
2019-03-03T14:55:27.844Z,11.10
2019-03-03T14:57:57.117Z,11.10
2019-03-03T15:00:31.938Z,11.10
2019-03-03T15:03:02.481Z,11.20
2019-03-03T15:05:31.913Z,11.20
2019-03-03T15:08:01.798Z,11.20
2019-03-03T15:10:30.970Z,11.10
2019-03-03T15:13:00.865Z,11.20
2019-03-03T15:15:31.360Z,11.20
2019-03-03T15:18:00.396Z,11.20
2019-03-03T15:20:32.723Z,11.30
2019-03-03T15:23:02.575Z,11.40
2019-03-03T15:25:31.696Z,11.40
2019-03-03T15:28:01.077Z,11.50
2019-03-03T15:30:31.025Z,11.50
2019-03-03T15:33:02.260Z,11.50
2019-03-03T15:35:34.551Z,11.50
2019-03-03T15:38:03.980Z,11.50
2019-03-03T15:40:33.283Z,11.50
2019-03-03T15:43:02.309Z,11.40
2019-03-03T15:45:34.420Z,11.50
2019-03-03T15:48:08.260Z,11.40
2019-03-03T15:50:37.908Z,11.40
2019-03-03T15:53:08.366Z,11.40
2019-03-03T15:55:37.322Z,11.30
2019-03-03T15:58:06.158Z,11.30
2019-03-03T16:00:35.141Z,11.30
2019-03-03T16:03:04.152Z,11.30
2019-03-03T16:05:33.320Z,11.30
2019-03-03T16:08:02.683Z,11.30
2019-03-03T16:10:31.966Z,11.40
2019-03-03T16:13:03.688Z,11.40
2019-03-03T16:15:32.383Z,11.40
2019-03-03T16:18:01.459Z,11.40
2019-03-03T16:20:30.872Z,11.40
2019-03-03T16:23:00.271Z,11.40
2019-03-03T16:25:29.205Z,11.50
2019-03-03T16:27:58.329Z,11.50
2019-03-03T16:30:27.337Z,11.50
2019-03-03T16:32:57.134Z,11.60
2019-03-03T16:35:46.968Z,11.50
2019-03-03T16:38:16.198Z,11.60
2019-03-03T16:40:49.170Z,11.60
2019-03-03T16:43:20.094Z,11.50
2019-03-03T16:45:52.724Z,11.50
2019-03-03T16:48:23.402Z,11.60
2019-03-03T16:50:59.130Z,11.60
2019-03-03T16:53:32.003Z,11.50
2019-03-03T16:56:01.179Z,11.50
2019-03-03T16:58:30.361Z,11.50
2019-03-03T17:00:59.541Z,11.50
2019-03-03T17:03:32.326Z,11.50
2019-03-03T17:06:01.890Z,11.50
2019-03-03T17:08:31.104Z,11.50
2019-03-03T17:11:00.770Z,11.50
2019-03-03T17:13:30.768Z,11.50
2019-03-03T17:15:59.839Z,11.50
2019-03-03T17:18:28.839Z,11.50
2019-03-03T17:20:58.335Z,11.50
2019-03-03T17:23:28.250Z,11.50
2019-03-03T17:25:57.238Z,11.50
2019-03-03T17:28:26.297Z,11.50
2019-03-03T17:30:55.751Z,11.50
2019-03-03T17:33:25.181Z,11.50
2019-03-03T17:35:54.275Z,11.50
2019-03-03T17:38:24.440Z,11.40
2019-03-03T17:40:53.519Z,11.40
2019-03-03T17:43:24.083Z,11.40
2019-03-03T17:45:57.842Z,11.40
2019-03-03T17:48:27.252Z,11.40
2019-03-03T17:50:56.663Z,11.40
2019-03-03T17:53:25.771Z,11.50
2019-03-03T17:55:54.802Z,11.50
2019-03-03T17:58:24.581Z,11.40
2019-03-03T18:00:53.670Z,11.50
2019-03-03T18:03:22.596Z,11.50
2019-03-03T18:05:51.770Z,11.60
2019-03-03T18:08:21.753Z,11.60
2019-03-03T18:10:51.759Z,11.50
2019-03-03T18:13:22.154Z,11.50
2019-03-03T18:15:51.282Z,11.50
2019-03-03T18:18:20.235Z,11.40
2019-03-03T18:20:49.466Z,11.40
2019-03-03T18:23:20.700Z,11.30
2019-03-03T18:25:49.678Z,11.30
2019-03-03T18:28:18.702Z,11.30
2019-03-03T18:30:47.610Z,11.30
2019-03-03T18:33:17.446Z,11.20
2019-03-03T18:35:46.531Z,11.20
2019-03-03T18:38:15.539Z,11.20
2019-03-03T18:40:47.919Z,11.20
2019-03-03T18:43:17.576Z,11.20
2019-03-03T18:45:46.541Z,11.30
2019-03-03T18:48:15.988Z,11.30
2019-03-03T18:50:51.964Z,11.30
2019-03-03T18:53:21.839Z,11.40
2019-03-03T18:55:52.846Z,11.40
2019-03-03T18:58:24.969Z,11.30
2019-03-03T19:00:53.921Z,11.30
2019-03-03T19:03:23.375Z,11.20
2019-03-03T19:05:55.988Z,11.20
2019-03-03T19:08:23.700Z,11.10
2019-03-03T19:10:53.258Z,11.00
2019-03-03T19:13:22.483Z,10.90
2019-03-03T19:15:51.520Z,10.90
2019-03-03T19:18:20.574Z,10.90
2019-03-03T19:20:49.524Z,11.00
2019-03-03T19:23:18.869Z,11.00
2019-03-03T19:25:48.097Z,11.10
2019-03-03T19:28:17.852Z,11.10
2019-03-03T19:30:46.866Z,11.20
2019-03-03T19:33:32.224Z,11.20
2019-03-03T19:36:01.828Z,11.30
2019-03-03T19:38:30.781Z,11.40
2019-03-03T19:41:01.995Z,11.50
2019-03-03T19:43:31.030Z,11.60
2019-03-03T19:46:00.116Z,11.60
2019-03-03T19:48:29.885Z,11.60
2019-03-03T19:51:03.377Z,11.60
2019-03-03T19:53:35.053Z,11.60
2019-03-03T19:56:10.652Z,11.40
2019-03-03T19:58:40.773Z,11.30
2019-03-03T20:01:10.039Z,11.40
2019-03-03T20:03:39.396Z,11.30
2019-03-03T20:06:08.620Z,11.40
2019-03-03T20:11:13.108Z,11.50
2019-03-03T20:13:42.398Z,11.60
2019-03-03T20:16:12.892Z,11.60
2019-03-03T20:18:43.015Z,11.70
2019-03-03T20:21:12.092Z,11.70
2019-03-03T20:23:47.359Z,11.70
2019-03-03T20:26:17.174Z,11.70
2019-03-03T20:28:50.528Z,11.70
2019-03-03T20:31:18.688Z,11.70
2019-03-03T20:33:49.279Z,11.70
2019-03-03T20:36:18.286Z,11.60
2019-03-03T20:38:48.061Z,11.60
2019-03-03T20:41:17.279Z,11.60
2019-03-03T20:43:46.236Z,11.70
2019-03-03T20:46:15.411Z,11.70
2019-03-03T20:48:45.568Z,11.70
2019-03-03T20:51:14.635Z,11.80
2019-03-03T20:53:44.102Z,11.80
2019-03-03T20:56:13.714Z,11.80
2019-03-03T20:58:43.736Z,11.80
2019-03-03T21:01:13.306Z,11.70
2019-03-03T21:03:42.219Z,11.80
2019-03-03T21:06:12.655Z,11.80
2019-03-03T21:08:42.426Z,11.80
2019-03-03T21:11:14.414Z,11.80
2019-03-03T21:13:44.231Z,11.70
2019-03-03T21:16:13.719Z,11.70
2019-03-03T21:18:44.085Z,11.70
2019-03-03T21:21:13.958Z,11.70
2019-03-03T21:23:43.401Z,11.70
2019-03-03T21:26:13.192Z,11.70
2019-03-03T21:28:42.589Z,11.70
2019-03-03T21:31:11.558Z,11.70
2019-03-03T21:33:40.823Z,11.70
2019-03-03T21:36:10.602Z,11.70
2019-03-03T21:38:43.296Z,11.70
2019-03-03T21:41:14.345Z,11.70
2019-03-03T21:43:43.254Z,11.80
2019-03-03T21:46:13.103Z,11.80
2019-03-03T21:48:41.998Z,11.80
2019-03-03T21:51:12.128Z,11.80
2019-03-03T21:53:42.515Z,11.80
2019-03-03T21:56:11.491Z,11.80
2019-03-03T21:58:40.397Z,11.80
2019-03-03T22:01:09.929Z,11.80
2019-03-03T22:03:39.408Z,11.80
2019-03-03T22:06:10.673Z,11.80
2019-03-03T22:08:40.401Z,11.80
2019-03-03T22:11:12.939Z,11.80
2019-03-03T22:13:41.938Z,11.70
2019-03-03T22:16:12.435Z,11.70
2019-03-03T22:18:41.359Z,11.70
2019-03-03T22:21:11.671Z,11.70
2019-03-03T22:23:41.706Z,11.80
2019-03-03T22:26:10.980Z,11.80
2019-03-03T22:28:42.833Z,11.80
2019-03-03T22:31:12.594Z,11.70
2019-03-03T22:33:41.855Z,11.60
2019-03-03T22:36:10.807Z,11.60
2019-03-03T22:38:39.976Z,11.50
2019-03-03T22:41:10.239Z,11.50
2019-03-03T22:43:39.979Z,11.50
2019-03-03T22:46:11.158Z,11.50
2019-03-03T22:48:40.101Z,11.50
2019-03-03T22:51:09.087Z,11.60
2019-03-03T22:53:38.814Z,11.70
2019-03-03T22:56:10.861Z,11.80
2019-03-03T22:58:39.776Z,11.80
2019-03-03T23:01:23.829Z,11.80
2019-03-03T23:04:42.902Z,11.90
2019-03-03T23:07:36.691Z,11.80
2019-03-03T23:11:01.574Z,11.90
2019-03-03T23:13:47.692Z,11.90
2019-03-03T23:16:38.022Z,11.80
2019-03-03T23:19:39.985Z,11.80
2019-03-03T23:22:38.314Z,11.80
2019-03-03T23:25:31.311Z,11.80
2019-03-03T23:28:00.767Z,11.80
2019-03-03T23:30:30.696Z,11.90
2019-03-03T23:32:59.608Z,11.80
2019-03-03T23:35:28.566Z,11.90
2019-03-03T23:37:58.942Z,11.90
2019-03-03T23:40:30.391Z,11.90
2019-03-03T23:42:59.708Z,11.90
2019-03-03T23:45:28.658Z,11.80
2019-03-03T23:47:57.582Z,11.80
2019-03-03T23:50:26.705Z,11.80
2019-03-03T23:52:56.184Z,11.80
2019-03-03T23:55:25.209Z,11.90
2019-03-03T23:57:54.274Z,11.90
